Time;durP1;ratioP1;P1;durP2;ratioP2;P2;SDS_P1;SDS_P2;PMS_P1;PMS_P2;Temp;Humidity;BMP_temperature;BMP_pressure;BME280_temperature;BME280_humidity;BME280_pressure;Samples;Min_cycle;Max_cycle;Signal;HPM_P1;HPM_P2
2023/09/18 00:02:24;;;;;;;;;;;22.80;94.40;;;;;;5047249;28;20241;-53
2023/09/18 00:04:49;;;;;;;;;;;22.80;94.40;;;;;;5036819;28;20268;-57
2023/09/18 00:07:15;;;;;;;;;;;22.80;94.40;;;;;;5054440;28;19909;-57
2023/09/18 00:09:40;;;;;;;;;;;22.80;94.40;;;;;;5054329;28;19962;-55
2023/09/18 00:12:06;;;;;;;;;;;22.90;94.40;;;;;;5053380;28;19913;-55
2023/09/18 00:14:32;;;;;;;;;;;22.80;94.40;;;;;;5054550;28;19908;-53
2023/09/18 00:16:57;;;;;;;;;;;22.80;94.40;;;;;;5054537;28;19916;-56
2023/09/18 00:19:23;;;;;;;;;;;22.80;94.40;;;;;;5054205;28;19909;-55
2023/09/18 00:21:49;;;;;;;;;;;22.90;94.40;;;;;;5052440;28;19960;-54
2023/09/18 00:24:14;;;;;;;;;;;22.80;94.30;;;;;;5054219;28;20351;-54
2023/09/18 00:26:40;;;;;;;;;;;22.80;94.40;;;;;;5041989;28;19936;-55
2023/09/18 00:29:05;;;;;;;;;;;22.90;94.40;;;;;;5034364;28;19917;-53
2023/09/18 00:31:31;;;;;;;;;;;22.80;94.30;;;;;;5037860;28;20364;-56
2023/09/18 00:33:56;;;;;;;;;;;22.90;94.30;;;;;;5044440;28;19967;-52
2023/09/18 00:36:22;;;;;;;;;;;22.90;94.30;;;;;;5034302;28;19910;-56
2023/09/18 00:38:47;;;;;;;;;;;22.90;94.30;;;;;;5034314;28;19917;-51
2023/09/18 00:41:13;;;;;;;;;;;22.90;94.30;;;;;;5035692;28;19953;-54
2023/09/18 00:43:38;;;;;;;;;;;22.90;94.30;;;;;;5051944;28;20356;-56
2023/09/18 00:46:04;;;;;;;;;;;22.90;94.30;;;;;;5053992;28;19913;-53
2023/09/18 00:48:30;;;;;;;;;;;22.90;94.30;;;;;;5053569;28;19936;-59
2023/09/18 00:50:56;;;;;;;;;;;22.90;94.30;;;;;;5053674;28;19956;-54
2023/09/18 00:53:23;;;;;;;;;;;22.90;94.30;;;;;;5044386;28;20051;-54
2023/09/18 00:55:50;;;;;;;;;;;22.90;94.30;;;;;;5033648;28;19913;-53
2023/09/18 00:58:16;;;;;;;;;;;22.90;94.30;;;;;;5034022;28;19916;-52
2023/09/18 01:00:43;;;;;;;;;;;22.90;94.30;;;;;;5033853;28;20008;-52
2023/09/18 01:03:08;;;;;;;;;;;22.90;94.30;;;;;;5043655;28;20375;-52
2023/09/18 01:05:34;;;;;;;;;;;22.90;94.30;;;;;;5053456;28;19913;-52
2023/09/18 01:07:59;;;;;;;;;;;22.90;94.30;;;;;;5057709;28;19967;-51
2023/09/18 01:10:28;;;;;;;;;;;22.90;94.20;;;;;;5057658;28;19915;-50
2023/09/18 01:12:59;;;;;;;;;;;22.90;94.20;;;;;;5057976;28;19962;-58
2023/09/18 01:15:33;;;;;;;;;;;22.90;94.20;;;;;;5056460;28;19967;-53
2023/09/18 01:17:59;;;;;;;;;;;22.90;94.20;;;;;;5057657;28;20322;-49
2023/09/18 01:20:24;;;;;;;;;;;22.90;94.20;;;;;;5057610;28;19909;-51
2023/09/18 01:22:50;;;;;;;;;;;22.90;94.20;;;;;;5055810;28;19913;-52
2023/09/18 01:25:15;;;;;;;;;;;22.90;94.20;;;;;;5045358;28;19975;-58
2023/09/18 01:27:41;;;;;;;;;;;22.90;94.20;;;;;;5038059;28;19948;-53
2023/09/18 01:30:07;;;;;;;;;;;22.90;94.20;;;;;;5037925;28;20260;-50
2023/09/18 01:32:34;;;;;;;;;;;23.00;94.20;;;;;;5037767;28;19909;-57
2023/09/18 01:35:00;;;;;;;;;;;22.90;94.20;;;;;;5045629;28;19924;-56
2023/09/18 01:37:27;;;;;;;;;;;22.90;94.20;;;;;;5057583;28;19909;-59
2023/09/18 01:39:53;;;;;;;;;;;23.00;94.20;;;;;;5055381;28;19913;-53
2023/09/18 01:42:19;;;;;;;;;;;23.00;94.20;;;;;;5057218;28;20351;-51
2023/09/18 01:44:45;;;;;;;;;;;23.00;94.10;;;;;;5057217;28;19970;-47
2023/09/18 01:47:12;;;;;;;;;;;23.00;94.10;;;;;;5057091;28;19913;-47
2023/09/18 01:49:38;;;;;;;;;;;23.00;94.20;;;;;;5089339;28;19971;-51
2023/09/18 01:52:04;;;;;;;;;;;23.00;94.20;;;;;;5077137;28;19908;-53
2023/09/18 01:54:30;;;;;;;;;;;22.90;94.10;;;;;;5069064;28;20268;-55
2023/09/18 01:56:56;;;;;;;;;;;22.90;94.10;;;;;;5053482;28;20379;-58
2023/09/18 01:59:22;;;;;;;;;;;22.90;93.20;;;;;;5058821;28;19916;-56
2023/09/18 02:01:47;;;;;;;;;;;22.90;93.00;;;;;;5056898;28;19909;-53
2023/09/18 02:04:13;;;;;;;;;;;22.90;93.10;;;;;;5056977;28;19916;-54
2023/09/18 02:06:39;;;;;;;;;;;22.90;93.30;;;;;;5055574;28;20422;-55
2023/09/18 02:09:07;;;;;;;;;;;22.90;93.40;;;;;;5054869;28;19917;-55
2023/09/18 02:11:33;;;;;;;;;;;22.90;93.50;;;;;;5054602;28;19909;-55
2023/09/18 02:13:58;;;;;;;;;;;22.90;93.60;;;;;;5055013;28;19932;-55
2023/09/18 02:16:24;;;;;;;;;;;22.90;93.60;;;;;;5053586;28;19992;-56
2023/09/18 02:18:49;;;;;;;;;;;22.90;93.60;;;;;;5054961;28;19913;-55
2023/09/18 02:21:21;;;;;;;;;;;22.90;93.60;;;;;;5055101;28;19909;-56
2023/09/18 02:23:53;;;;;;;;;;;22.90;93.60;;;;;;5055966;28;19917;-56
2023/09/18 02:26:19;;;;;;;;;;;22.90;93.70;;;;;;5056727;28;20442;-52
2023/09/18 02:28:45;;;;;;;;;;;22.90;93.70;;;;;;5056632;28;20007;-55
2023/09/18 02:31:10;;;;;;;;;;;22.90;93.70;;;;;;5056602;28;19909;-54
2023/09/18 02:33:36;;;;;;;;;;;22.90;93.70;;;;;;5056561;28;19908;-56
2023/09/18 02:36:02;;;;;;;;;;;22.90;93.70;;;;;;5056198;28;19909;-53
2023/09/18 02:38:28;;;;;;;;;;;22.90;93.70;;;;;;5056168;28;19908;-55
2023/09/18 02:40:54;;;;;;;;;;;22.90;93.80;;;;;;5056744;28;19908;-54
2023/09/18 02:43:20;;;;;;;;;;;22.90;93.80;;;;;;5056373;28;19958;-55
2023/09/18 02:45:46;;;;;;;;;;;22.90;93.70;;;;;;5056377;28;19908;-55
2023/09/18 02:48:11;;;;;;;;;;;23.00;93.80;;;;;;5048943;28;20375;-54
2023/09/18 02:50:37;;;;;;;;;;;22.90;93.70;;;;;;5036270;28;19995;-56
2023/09/18 02:53:03;;;;;;;;;;;22.90;93.80;;;;;;5036026;28;20345;-55
2023/09/18 02:55:28;;;;;;;;;;;22.90;93.70;;;;;;5036570;28;19909;-55
2023/09/18 02:57:54;;;;;;;;;;;22.90;93.70;;;;;;5036182;28;19916;-51
2023/09/18 03:00:20;;;;;;;;;;;23.00;93.80;;;;;;5036173;28;19913;-55
2023/09/18 03:02:45;;;;;;;;;;;22.90;93.80;;;;;;5035848;28;20356;-56
2023/09/18 03:05:11;;;;;;;;;;;22.90;93.70;;;;;;5036174;28;20132;-55
2023/09/18 03:07:37;;;;;;;;;;;22.90;93.70;;;;;;5036267;28;19955;-54
2023/09/18 03:10:02;;;;;;;;;;;22.90;93.70;;;;;;5035597;28;20004;-56
2023/09/18 03:12:28;;;;;;;;;;;22.90;93.70;;;;;;5035866;28;19967;-56
2023/09/18 03:14:53;;;;;;;;;;;22.90;93.70;;;;;;5035810;28;20062;-55
2023/09/18 03:17:20;;;;;;;;;;;22.90;93.70;;;;;;5035861;28;20287;-55
2023/09/18 03:19:47;;;;;;;;;;;22.90;93.70;;;;;;5035771;28;19916;-55
2023/09/18 03:22:13;;;;;;;;;;;22.90;93.70;;;;;;5036001;28;19956;-54
2023/09/18 03:24:38;;;;;;;;;;;22.90;93.70;;;;;;5035401;28;19909;-54
2023/09/18 03:27:04;;;;;;;;;;;22.90;93.70;;;;;;5035011;28;20322;-56
2023/09/18 03:29:30;;;;;;;;;;;22.90;93.70;;;;;;5035003;28;19960;-54
2023/09/18 03:31:58;;;;;;;;;;;22.90;93.70;;;;;;5035394;28;19909;-55
2023/09/18 03:34:26;;;;;;;;;;;22.90;93.70;;;;;;5035056;28;20024;-54
2023/09/18 03:36:51;;;;;;;;;;;22.90;93.70;;;;;;5034961;28;19910;-52
2023/09/18 03:39:17;;;;;;;;;;;22.90;93.70;;;;;;5035364;28;19955;-55
2023/09/18 03:41:42;;;;;;;;;;;22.90;93.70;;;;;;5035224;28;19913;-52
2023/09/18 03:44:09;;;;;;;;;;;22.90;93.70;;;;;;5035134;28;19909;-56
2023/09/18 03:46:35;;;;;;;;;;;22.90;93.70;;;;;;5035025;28;20387;-55
2023/09/18 03:49:01;;;;;;;;;;;22.90;93.70;;;;;;5034965;28;19976;-55
2023/09/18 03:51:26;;;;;;;;;;;22.90;93.70;;;;;;5034589;28;19909;-55
2023/09/18 03:53:52;;;;;;;;;;;22.90;93.70;;;;;;5034627;28;19917;-55
2023/09/18 03:56:17;;;;;;;;;;;22.90;93.70;;;;;;5034658;28;19910;-53
2023/09/18 03:58:46;;;;;;;;;;;22.90;93.70;;;;;;5034987;28;19910;-52
2023/09/18 04:01:12;;;;;;;;;;;22.90;93.70;;;;;;5034958;28;19909;-55
2023/09/18 04:03:37;;;;;;;;;;;22.90;93.70;;;;;;5034669;28;20315;-53
2023/09/18 04:06:03;;;;;;;;;;;22.90;93.70;;;;;;5034856;28;19909;-53
2023/09/18 04:08:28;;;;;;;;;;;22.90;93.70;;;;;;5034720;28;19917;-56
2023/09/18 04:10:55;;;;;;;;;;;22.90;93.70;;;;;;5034501;28;20328;-53
2023/09/18 04:13:21;;;;;;;;;;;22.80;93.70;;;;;;5017009;28;20356;-56
2023/09/18 04:15:46;;;;;;;;;;;22.90;93.70;;;;;;5034331;28;19909;-53
2023/09/18 04:18:12;;;;;;;;;;;22.80;93.70;;;;;;5034506;28;19956;-54
2023/09/18 04:20:37;;;;;;;;;;;22.80;93.60;;;;;;5034587;28;19938;-55
2023/09/18 04:23:18;;;;;;;;;;;22.90;93.70;;;;;;5034149;28;20028;-54
2023/09/18 04:25:44;;;;;;;;;;;22.80;93.70;;;;;;5016724;28;20000;-55
2023/09/18 04:28:09;;;;;;;;;;;22.80;93.60;;;;;;5034405;28;20475;-54
2023/09/18 04:30:35;;;;;;;;;;;22.80;93.60;;;;;;5034290;28;19910;-56
2023/09/18 04:33:01;;;;;;;;;;;22.80;93.60;;;;;;5034077;28;19909;-56
2023/09/18 04:35:26;;;;;;;;;;;22.80;93.60;;;;;;5034068;28;20365;-54
2023/09/18 04:37:55;;;;;;;;;;;22.90;93.70;;;;;;5034142;28;19931;-54
2023/09/18 04:40:20;;;;;;;;;;;22.80;93.60;;;;;;5033802;28;20014;-52
2023/09/18 04:42:46;;;;;;;;;;;22.80;93.60;;;;;;5034145;28;19909;-56
2023/09/18 04:45:11;;;;;;;;;;;22.80;93.60;;;;;;5034544;28;19948;-54
2023/09/18 04:47:37;;;;;;;;;;;22.80;93.70;;;;;;5033954;28;19929;-54
2023/09/18 04:50:05;;;;;;;;;;;22.80;93.60;;;;;;5034493;28;20012;-55
2023/09/18 04:52:30;;;;;;;;;;;22.80;93.60;;;;;;5033678;28;19909;-55
2023/09/18 04:54:57;;;;;;;;;;;22.80;93.60;;;;;;5034061;28;19971;-54
2023/09/18 04:57:22;;;;;;;;;;;22.80;93.60;;;;;;5033968;28;19967;-50
2023/09/18 04:59:49;;;;;;;;;;;22.80;93.60;;;;;;5033542;28;19948;-55
2023/09/18 05:02:14;;;;;;;;;;;22.80;93.60;;;;;;5034009;28;19909;-53
2023/09/18 05:04:40;;;;;;;;;;;22.80;93.60;;;;;;5033865;28;19967;-53
2023/09/18 05:07:05;;;;;;;;;;;22.80;93.60;;;;;;5033932;28;19909;-54
2023/09/18 05:09:31;;;;;;;;;;;22.80;93.70;;;;;;5033821;28;20333;-55
2023/09/18 05:11:57;;;;;;;;;;;22.80;93.70;;;;;;5033858;28;20360;-52
2023/09/18 05:14:23;;;;;;;;;;;22.80;93.70;;;;;;5016156;28;19909;-53
2023/09/18 05:16:48;;;;;;;;;;;22.80;93.70;;;;;;5016164;28;20144;-53
2023/09/18 05:19:14;;;;;;;;;;;22.80;93.70;;;;;;5033474;28;19963;-54
2023/09/18 05:21:39;;;;;;;;;;;22.80;93.70;;;;;;5033478;28;19920;-52
2023/09/18 05:24:05;;;;;;;;;;;22.80;93.70;;;;;;5033323;28;19909;-54
2023/09/18 05:26:30;;;;;;;;;;;22.80;93.70;;;;;;5033518;28;19989;-56
2023/09/18 05:28:57;;;;;;;;;;;22.80;93.70;;;;;;5033354;28;19923;-56
2023/09/18 05:31:22;;;;;;;;;;;22.80;93.70;;;;;;5033248;28;20009;-55
2023/09/18 05:33:48;;;;;;;;;;;22.80;93.70;;;;;;5033530;28;20340;-56
2023/09/18 05:36:14;;;;;;;;;;;22.80;93.70;;;;;;5033412;28;19916;-55
2023/09/18 05:38:40;;;;;;;;;;;22.80;93.70;;;;;;5033118;28;20299;-57
2023/09/18 05:41:05;;;;;;;;;;;22.80;93.70;;;;;;5015777;28;19910;-56
2023/09/18 05:43:31;;;;;;;;;;;22.70;93.70;;;;;;5033292;28;20386;-53
2023/09/18 05:45:56;;;;;;;;;;;22.70;93.70;;;;;;5033330;28;19936;-54
2023/09/18 05:48:22;;;;;;;;;;;22.70;93.70;;;;;;5033298;28;19974;-56
2023/09/18 05:50:47;;;;;;;;;;;22.70;93.70;;;;;;5033480;28;19909;-57
2023/09/18 05:53:13;;;;;;;;;;;22.70;93.70;;;;;;5037136;28;19909;-57
2023/09/18 05:55:38;;;;;;;;;;;22.70;93.80;;;;;;5037097;28;20288;-54
2023/09/18 05:58:06;;;;;;;;;;;22.70;93.80;;;;;;5036883;28;19955;-55
2023/09/18 06:00:32;;;;;;;;;;;22.70;93.80;;;;;;5037129;28;20271;-54
2023/09/18 06:02:58;;;;;;;;;;;22.70;93.80;;;;;;5037132;28;20305;-53
2023/09/18 06:05:24;;;;;;;;;;;22.70;93.80;;;;;;5036983;28;19916;-51
2023/09/18 06:07:50;;;;;;;;;;;22.70;93.80;;;;;;5036819;28;19914;-56
2023/09/18 06:10:17;;;;;;;;;;;22.70;93.90;;;;;;5036592;28;19955;-56
2023/09/18 06:12:43;;;;;;;;;;;22.70;93.90;;;;;;5036638;28;19909;-55
2023/09/18 06:15:12;;;;;;;;;;;22.70;93.90;;;;;;5036458;28;20004;-54
2023/09/18 06:17:42;;;;;;;;;;;22.70;93.90;;;;;;5036531;28;19917;-55
2023/09/18 06:20:09;;;;;;;;;;;22.70;93.90;;;;;;5036309;28;19913;-54
2023/09/18 06:22:34;;;;;;;;;;;22.70;93.90;;;;;;5036605;28;19909;-55
2023/09/18 06:25:00;;;;;;;;;;;22.70;93.90;;;;;;5036238;28;20000;-54
2023/09/18 06:27:25;;;;;;;;;;;22.70;93.90;;;;;;5018604;28;19917;-56
2023/09/18 06:29:51;;;;;;;;;;;22.70;93.90;;;;;;5036104;28;20032;-56
2023/09/18 06:32:16;;;;;;;;;;;22.70;93.90;;;;;;5036438;28;19916;-56
2023/09/18 06:34:44;;;;;;;;;;;22.70;93.90;;;;;;5036387;28;20004;-56
2023/09/18 06:37:12;;;;;;;;;;;22.70;93.90;;;;;;5035996;28;20059;-57
2023/09/18 06:39:38;;;;;;;;;;;22.70;93.90;;;;;;5035868;28;20348;-57
2023/09/18 06:42:03;;;;;;;;;;;22.70;94.00;;;;;;5036322;28;19917;-52
2023/09/18 06:44:29;;;;;;;;;;;22.60;93.90;;;;;;5035991;28;19963;-55
2023/09/18 06:46:54;;;;;;;;;;;22.60;94.00;;;;;;5035787;28;19915;-55
2023/09/18 06:49:20;;;;;;;;;;;22.70;94.00;;;;;;5035821;28;19948;-53
2023/09/18 06:51:45;;;;;;;;;;;22.60;94.00;;;;;;5036107;28;19909;-55
2023/09/18 06:54:11;;;;;;;;;;;22.60;94.00;;;;;;5017876;28;19920;-55
2023/09/18 06:56:37;;;;;;;;;;;22.60;94.00;;;;;;5035785;28;19975;-57
2023/09/18 06:59:02;;;;;;;;;;;22.60;94.00;;;;;;5036368;28;19909;-55
2023/09/18 07:01:28;;;;;;;;;;;22.60;94.00;;;;;;5035638;28;19913;-53
2023/09/18 07:03:53;;;;;;;;;;;22.60;94.00;;;;;;5035172;28;19909;-52
2023/09/18 07:06:20;;;;;;;;;;;22.60;94.00;;;;;;5035532;28;19952;-56
2023/09/18 07:08:47;;;;;;;;;;;22.60;94.00;;;;;;5035720;28;19917;-56
2023/09/18 07:11:12;;;;;;;;;;;22.60;94.00;;;;;;5035717;28;19932;-56
2023/09/18 07:13:38;;;;;;;;;;;22.60;94.00;;;;;;5018094;28;20008;-52
2023/09/18 07:16:03;;;;;;;;;;;22.60;94.10;;;;;;5035613;28;19909;-55
2023/09/18 07:18:29;;;;;;;;;;;22.60;94.00;;;;;;5035509;28;20086;-54
2023/09/18 07:20:54;;;;;;;;;;;22.60;94.10;;;;;;5035136;28;19909;-56
2023/09/18 07:23:20;;;;;;;;;;;22.60;94.10;;;;;;5034932;28;20004;-57
2023/09/18 07:25:47;;;;;;;;;;;22.60;94.10;;;;;;5017159;28;19909;-55
2023/09/18 07:28:17;;;;;;;;;;;22.60;94.00;;;;;;5035251;28;19924;-56
2023/09/18 07:30:43;;;;;;;;;;;22.60;94.10;;;;;;5035394;28;19909;-57
2023/09/18 07:33:09;;;;;;;;;;;22.60;94.00;;;;;;5035034;28;20276;-54
2023/09/18 07:35:35;;;;;;;;;;;22.60;94.00;;;;;;5035211;28;20031;-54
2023/09/18 07:38:00;;;;;;;;;;;22.60;94.20;;;;;;5034844;28;20368;-52
2023/09/18 07:40:26;;;;;;;;;;;22.60;94.00;;;;;;5035176;28;19910;-54
2023/09/18 07:42:51;;;;;;;;;;;22.60;94.00;;;;;;5035059;28;20264;-52
2023/09/18 07:45:18;;;;;;;;;;;22.60;94.10;;;;;;5035246;28;19909;-55
2023/09/18 07:47:43;;;;;;;;;;;22.60;94.00;;;;;;5034883;28;20389;-54
2023/09/18 07:50:09;;;;;;;;;;;22.60;94.00;;;;;;5034682;28;20012;-56
2023/09/18 07:52:35;;;;;;;;;;;22.60;94.00;;;;;;5035290;28;19909;-53
2023/09/18 07:55:00;;;;;;;;;;;22.60;94.10;;;;;;5034593;28;20007;-52
2023/09/18 07:57:28;;;;;;;;;;;22.60;94.10;;;;;;5034700;28;19909;-56
2023/09/18 07:59:53;;;;;;;;;;;22.60;94.00;;;;;;5034271;28;20007;-56
2023/09/18 08:02:19;;;;;;;;;;;22.60;94.10;;;;;;5035825;28;19996;-52
2023/09/18 08:04:45;;;;;;;;;;;22.60;94.10;;;;;;5039229;28;20280;-53
2023/09/18 08:07:12;;;;;;;;;;;22.60;94.00;;;;;;5034249;28;20385;-55
2023/09/18 08:09:38;;;;;;;;;;;22.60;94.00;;;;;;5034122;28;20067;-54
2023/09/18 08:12:04;;;;;;;;;;;22.60;94.00;;;;;;5034307;28;19957;-55
2023/09/18 08:14:30;;;;;;;;;;;22.60;94.00;;;;;;5033782;28;20074;-56
2023/09/18 08:16:57;;;;;;;;;;;22.60;94.00;;;;;;5038307;28;20384;-53
2023/09/18 08:19:23;;;;;;;;;;;22.60;94.00;;;;;;5042795;28;20378;-56
2023/09/18 08:21:48;;;;;;;;;;;22.60;94.00;;;;;;5034727;28;19971;-55
2023/09/18 08:24:14;;;;;;;;;;;22.60;94.00;;;;;;5045252;28;20323;-51
2023/09/18 08:26:39;;;;;;;;;;;22.60;94.00;;;;;;5015934;28;19919;-55
2023/09/18 08:29:05;;;;;;;;;;;22.60;94.00;;;;;;5037672;28;20012;-56
2023/09/18 08:31:31;;;;;;;;;;;22.60;94.00;;;;;;5041878;28;20020;-55
2023/09/18 08:33:57;;;;;;;;;;;22.60;94.00;;;;;;5038192;28;19917;-54
2023/09/18 08:36:22;;;;;;;;;;;22.60;94.00;;;;;;5032974;28;19956;-53
2023/09/18 08:38:48;;;;;;;;;;;22.60;94.00;;;;;;5042528;28;19944;-53
2023/09/18 08:41:14;;;;;;;;;;;22.60;94.10;;;;;;5034848;28;19975;-55
2023/09/18 08:43:41;;;;;;;;;;;22.60;94.10;;;;;;5033679;28;19910;-52
2023/09/18 08:46:06;;;;;;;;;;;22.60;94.10;;;;;;5033928;28;19909;-53
2023/09/18 08:48:36;;;;;;;;;;;22.60;94.10;;;;;;5033651;28;19990;-54
2023/09/18 08:51:05;;;;;;;;;;;22.60;94.10;;;;;;5038210;28;20279;-54
2023/09/18 08:53:31;;;;;;;;;;;22.60;94.10;;;;;;5053493;28;19959;-54
2023/09/18 08:55:58;;;;;;;;;;;22.60;94.10;;;;;;5053598;28;19909;-52
2023/09/18 08:58:25;;;;;;;;;;;22.60;94.10;;;;;;5053457;28;20240;-53
2023/09/18 09:00:50;;;;;;;;;;;22.60;94.10;;;;;;5053509;28;20012;-55
2023/09/18 09:03:16;;;;;;;;;;;22.60;94.10;;;;;;5053329;28;20008;-54
2023/09/18 09:05:42;;;;;;;;;;;22.60;94.10;;;;;;5053667;28;20379;-55
2023/09/18 09:08:07;;;;;;;;;;;22.60;94.10;;;;;;5053087;28;19924;-54
2023/09/18 09:10:33;;;;;;;;;;;22.60;94.10;;;;;;5043958;28;19913;-52
2023/09/18 09:12:59;;;;;;;;;;;22.60;94.10;;;;;;5031141;28;19924;-51
2023/09/18 09:15:47;;;;;;;;;;;22.60;94.10;;;;;;5038927;28;19920;-53
2023/09/18 09:18:16;;;;;;;;;;;22.50;94.00;;;;;;5033599;28;20344;-52
2023/09/18 09:20:53;;;;;;;;;;;22.50;94.00;;;;;;5031684;28;19917;-53
2023/09/18 09:23:18;;;;;;;;;;;22.60;94.00;;;;;;5031366;28;19914;-54
2023/09/18 09:25:44;;;;;;;;;;;22.50;94.00;;;;;;5043855;28;19916;-54
2023/09/18 09:28:09;;;;;;;;;;;22.60;94.00;;;;;;5054920;28;19936;-54
2023/09/18 09:30:38;;;;;;;;;;;22.50;93.90;;;;;;5040589;28;20370;-52
2023/09/18 09:33:05;;;;;;;;;;;22.60;93.90;;;;;;5040783;28;19999;-53
2023/09/18 09:35:33;;;;;;;;;;;22.60;93.90;;;;;;5037146;28;20342;-55
2023/09/18 09:38:00;;;;;;;;;;;22.60;93.90;;;;;;5037352;28;19947;-52
2023/09/18 09:40:28;;;;;;;;;;;22.50;93.90;;;;;;5033335;28;19921;-56
2023/09/18 09:43:00;;;;;;;;;;;22.50;93.80;;;;;;5037831;28;19940;-52
2023/09/18 09:48:32;;;;;;;;;;;22.50;93.90;;;;;;5042083;28;19997;-52
2023/09/18 09:50:59;;;;;;;;;;;22.60;93.90;;;;;;5070980;28;19916;-53
2023/09/18 09:53:46;;;;;;;;;;;22.50;93.90;;;;;;5076903;28;19908;-54
2023/09/18 09:56:12;;;;;;;;;;;22.60;93.90;;;;;;5077019;28;19916;-57
2023/09/18 09:58:41;;;;;;;;;;;22.60;93.90;;;;;;5075667;28;20279;-54
2023/09/18 10:01:10;;;;;;;;;;;22.50;93.90;;;;;;5076954;28;20379;-52
2023/09/18 10:03:37;;;;;;;;;;;22.50;93.90;;;;;;5075669;28;19909;-55
2023/09/18 10:06:04;;;;;;;;;;;22.60;94.00;;;;;;5077297;28;19908;-54
2023/09/18 10:08:30;;;;;;;;;;;22.60;93.90;;;;;;5076668;28;19939;-54
2023/09/18 10:11:07;;;;;;;;;;;22.60;93.90;;;;;;5076421;28;19908;-54
2023/09/18 10:13:40;;;;;;;;;;;22.50;93.90;;;;;;5076471;28;19909;-54
2023/09/18 10:16:06;;;;;;;;;;;22.50;93.90;;;;;;5076780;28;20041;-56
2023/09/18 10:18:52;;;;;;;;;;;22.60;93.90;;;;;;5076280;28;20223;-52
2023/09/18 10:21:20;;;;;;;;;;;22.50;93.90;;;;;;5076617;28;19995;-53
2023/09/18 10:24:02;;;;;;;;;;;22.60;93.90;;;;;;5076548;28;20271;-56
2023/09/18 10:26:28;;;;;;;;;;;22.50;93.90;;;;;;5076707;28;20293;-55
2023/09/18 10:28:58;;;;;;;;;;;22.60;93.90;;;;;;5076495;28;19916;-54
2023/09/18 10:31:25;;;;;;;;;;;22.50;93.80;;;;;;5076486;28;20348;-56
2023/09/18 10:33:53;;;;;;;;;;;22.50;93.80;;;;;;5076200;28;19938;-56
2023/09/18 10:36:20;;;;;;;;;;;22.50;93.80;;;;;;5075176;28;19921;-56
2023/09/18 10:38:49;;;;;;;;;;;22.50;93.80;;;;;;5075250;28;19912;-56
2023/09/18 10:41:17;;;;;;;;;;;22.50;93.80;;;;;;5076335;28;19909;-56
2023/09/18 10:43:44;;;;;;;;;;;22.50;93.80;;;;;;5076304;28;20011;-56
2023/09/18 10:46:09;;;;;;;;;;;22.50;93.80;;;;;;5076055;28;20359;-55
2023/09/18 10:48:35;;;;;;;;;;;22.50;93.80;;;;;;5091512;28;19917;-55
2023/09/18 10:51:05;;;;;;;;;;;22.50;93.80;;;;;;5076642;28;19967;-56
2023/09/18 10:53:31;;;;;;;;;;;22.50;93.80;;;;;;5076151;28;20000;-55
2023/09/18 10:55:57;;;;;;;;;;;22.50;93.80;;;;;;5076050;28;19916;-56
2023/09/18 10:58:24;;;;;;;;;;;22.50;93.80;;;;;;5075865;28;19908;-55
2023/09/18 11:00:49;;;;;;;;;;;22.50;93.80;;;;;;5075964;28;19965;-57
2023/09/18 11:03:17;;;;;;;;;;;22.50;93.80;;;;;;5074634;28;19999;-54
2023/09/18 11:05:46;;;;;;;;;;;22.50;93.80;;;;;;5075467;28;20267;-52
2023/09/18 11:08:23;;;;;;;;;;;22.50;93.80;;;;;;5075710;28;19908;-51
2023/09/18 11:11:09;;;;;;;;;;;22.50;93.80;;;;;;5068453;28;20449;-54
2023/09/18 11:13:45;;;;;;;;;;;22.50;93.80;;;;;;5070816;28;19959;-54
2023/09/18 11:16:15;;;;;;;;;;;22.50;93.80;;;;;;5075462;28;19912;-55
2023/09/18 11:18:41;;;;;;;;;;;22.50;93.80;;;;;;5062060;28;19974;-56
2023/09/18 11:21:07;;;;;;;;;;;22.50;93.80;;;;;;5052614;28;20308;-56
2023/09/18 11:23:37;;;;;;;;;;;22.50;93.80;;;;;;5055434;28;19916;-51
2023/09/18 11:26:04;;;;;;;;;;;22.50;93.80;;;;;;5066019;28;19931;-55
2023/09/18 11:28:32;;;;;;;;;;;22.50;93.80;;;;;;5055085;28;19920;-54
2023/09/18 11:31:00;;;;;;;;;;;22.50;93.80;;;;;;5054195;28;20035;-54
2023/09/18 11:33:31;;;;;;;;;;;22.50;93.80;;;;;;5054115;28;20240;-54
2023/09/18 11:35:58;;;;;;;;;;;22.50;93.90;;;;;;5054742;28;20343;-55
2023/09/18 11:38:23;;;;;;;;;;;22.50;93.90;;;;;;5069812;28;20006;-54
2023/09/18 11:40:49;;;;;;;;;;;22.50;93.90;;;;;;5074694;28;19940;-52
2023/09/18 11:43:30;;;;;;;;;;;22.50;93.90;;;;;;5074939;28;19913;-54
2023/09/18 11:46:01;;;;;;;;;;;22.50;93.90;;;;;;5074782;28;19934;-56
2023/09/18 11:48:29;;;;;;;;;;;22.50;93.90;;;;;;5073799;28;19916;-55
2023/09/18 11:50:56;;;;;;;;;;;22.50;94.00;;;;;;5039234;28;19920;-56
2023/09/18 11:53:23;;;;;;;;;;;22.50;94.10;;;;;;5031005;28;20390;-52
2023/09/18 11:55:48;;;;;;;;;;;22.50;94.00;;;;;;5034641;28;20000;-55
2023/09/18 11:58:14;;;;;;;;;;;22.50;94.00;;;;;;5033773;28;20091;-52
2023/09/18 12:00:45;;;;;;;;;;;22.50;94.00;;;;;;5033941;28;20380;-56
2023/09/18 12:03:17;;;;;;;;;;;22.50;94.00;;;;;;5035083;28;20012;-56
2023/09/18 12:05:44;;;;;;;;;;;22.50;93.90;;;;;;5037131;28;19913;-54
2023/09/18 12:08:11;;;;;;;;;;;22.50;94.00;;;;;;5032914;28;19914;-55
2023/09/18 12:10:36;;;;;;;;;;;22.50;93.90;;;;;;5033328;28;19959;-55
2023/09/18 12:13:06;;;;;;;;;;;22.50;93.90;;;;;;5034282;28;19910;-55
2023/09/18 12:15:33;;;;;;;;;;;22.50;93.90;;;;;;5034025;28;20105;-56
2023/09/18 12:18:05;;;;;;;;;;;22.50;93.90;;;;;;5032363;28;19920;-55
2023/09/18 12:20:32;;;;;;;;;;;22.50;93.90;;;;;;5053768;28;19956;-56
2023/09/18 12:22:58;;;;;;;;;;;22.50;93.90;;;;;;5053803;28;20394;-56
2023/09/18 12:25:24;;;;;;;;;;;22.50;93.90;;;;;;5052826;28;20012;-56
2023/09/18 12:27:53;;;;;;;;;;;22.50;93.90;;;;;;5054098;28;19913;-54
2023/09/18 12:30:20;;;;;;;;;;;22.50;93.90;;;;;;5034114;28;19963;-56
2023/09/18 12:32:47;;;;;;;;;;;22.50;93.90;;;;;;5033675;28;19916;-53
2023/09/18 12:35:18;;;;;;;;;;;22.50;93.90;;;;;;5032661;28;19914;-55
2023/09/18 12:37:44;;;;;;;;;;;22.50;93.90;;;;;;5033839;28;19913;-56
2023/09/18 12:40:25;;;;;;;;;;;22.50;94.00;;;;;;5033719;28;19909;-56
2023/09/18 12:42:51;;;;;;;;;;;22.50;94.00;;;;;;5033933;28;19909;-55
2023/09/18 12:45:17;;;;;;;;;;;22.50;94.00;;;;;;5032354;28;19920;-54
2023/09/18 12:47:43;;;;;;;;;;;22.50;93.90;;;;;;5036696;28;20284;-56
2023/09/18 12:50:12;;;;;;;;;;;22.50;93.90;;;;;;5067864;28;19972;-56
2023/09/18 12:52:37;;;;;;;;;;;22.50;93.90;;;;;;5073524;28;20382;-52
2023/09/18 12:55:05;;;;;;;;;;;22.50;93.80;;;;;;5053631;28;19917;-56
2023/09/18 12:57:32;;;;;;;;;;;22.50;93.80;;;;;;5064819;28;19919;-56
2023/09/18 12:59:57;;;;;;;;;;;22.50;93.80;;;;;;5055832;28;20411;-54
2023/09/18 13:02:23;;;;;;;;;;;22.50;93.80;;;;;;5050082;28;20012;-54
2023/09/18 13:04:52;;;;;;;;;;;22.50;93.80;;;;;;5053213;28;20360;-57
2023/09/18 13:07:18;;;;;;;;;;;22.50;93.80;;;;;;5069216;28;20279;-52
2023/09/18 13:09:58;;;;;;;;;;;22.40;93.80;;;;;;5053552;28;19913;-54
2023/09/18 13:12:23;;;;;;;;;;;22.50;93.80;;;;;;5038763;28;20332;-55
2023/09/18 13:15:08;;;;;;;;;;;22.50;93.90;;;;;;5050777;28;19971;-56
2023/09/18 13:17:44;;;;;;;;;;;22.50;93.90;;;;;;5071105;28;19913;-54
2023/09/18 13:20:13;;;;;;;;;;;22.50;93.90;;;;;;5052097;28;19913;-56
2023/09/18 13:22:40;;;;;;;;;;;22.50;94.00;;;;;;5048963;28;19948;-55
2023/09/18 13:25:07;;;;;;;;;;;22.50;94.00;;;;;;5051112;28;20326;-54
2023/09/18 13:27:32;;;;;;;;;;;22.50;94.00;;;;;;5056187;28;19965;-55
2023/09/18 13:30:06;;;;;;;;;;;22.40;94.00;;;;;;5073168;28;20007;-52
2023/09/18 13:32:36;;;;;;;;;;;22.50;94.10;;;;;;5054483;28;19913;-55
2023/09/18 13:35:03;;;;;;;;;;;22.50;94.10;;;;;;5052099;28;20303;-55
2023/09/18 13:37:29;;;;;;;;;;;22.50;94.20;;;;;;5051813;28;19913;-53
2023/09/18 13:39:54;;;;;;;;;;;22.50;94.20;;;;;;5053377;28;20260;-55
2023/09/18 13:42:20;;;;;;;;;;;22.50;94.20;;;;;;5052320;28;19913;-55
2023/09/18 13:44:46;;;;;;;;;;;22.50;94.20;;;;;;5053341;28;20423;-53
2023/09/18 13:47:12;;;;;;;;;;;22.50;94.20;;;;;;5061698;28;19908;-55
2023/09/18 13:49:38;;;;;;;;;;;22.40;94.20;;;;;;5066302;28;19931;-53
2023/09/18 13:52:04;;;;;;;;;;;22.50;94.20;;;;;;5072732;28;19909;-53
2023/09/18 13:54:29;;;;;;;;;;;22.50;94.20;;;;;;5079134;28;19912;-54
2023/09/18 13:56:55;;;;;;;;;;;22.50;94.20;;;;;;5072994;28;19909;-56
2023/09/18 13:59:21;;;;;;;;;;;22.40;94.20;;;;;;5072078;28;19913;-50
2023/09/18 14:01:47;;;;;;;;;;;22.50;94.20;;;;;;5074872;28;19919;-55
2023/09/18 14:04:12;;;;;;;;;;;22.50;94.20;;;;;;5091825;28;19912;-52
2023/09/18 14:06:38;;;;;;;;;;;22.50;94.20;;;;;;5092493;28;19908;-58
2023/09/18 14:09:05;;;;;;;;;;;22.50;94.20;;;;;;5080752;28;20001;-55
2023/09/18 14:11:31;;;;;;;;;;;22.40;94.20;;;;;;5066708;28;19927;-55
2023/09/18 14:13:56;;;;;;;;;;;22.40;94.20;;;;;;5092531;28;19912;-55
2023/09/18 14:16:22;;;;;;;;;;;22.40;94.20;;;;;;5083204;28;19934;-54
2023/09/18 14:18:47;;;;;;;;;;;22.50;94.20;;;;;;5076153;28;19970;-51